sensor_id;sensor_type;location;lat;lon;timestamp;pressure;altitude;pressure_sealevel;temperature;humidity
36284;BME280;56085;48.910;9.478;2024-02-28T08:20:43;98560.16;;;13.07;45.33
36284;BME280;56085;48.910;9.478;2024-02-28T08:23:08;98560.31;;;12.95;45.55
36284;BME280;56085;48.910;9.478;2024-02-28T08:25:33;98568.59;;;13.15;44.51
36284;BME280;56085;48.910;9.478;2024-02-28T08:27:59;98570.00;;;13.05;44.88
36284;BME280;56085;48.910;9.478;2024-02-28T08:30:24;98566.44;;;13.04;44.83
36284;BME280;56085;48.910;9.478;2024-02-28T08:32:50;98574.56;;;12.93;44.83
36284;BME280;56085;48.910;9.478;2024-02-28T08:35:18;98579.59;;;13.07;44.74
36284;BME280;56085;48.910;9.478;2024-02-28T08:37:44;98568.53;;;13.11;44.30
36284;BME280;56085;48.910;9.478;2024-02-28T08:40:10;98576.44;;;13.09;44.68
36284;BME280;56085;48.910;9.478;2024-02-28T08:42:36;98572.63;;;13.17;44.75
36284;BME280;56085;48.910;9.478;2024-02-28T08:45:01;98575.81;;;13.19;44.35
36284;BME280;56085;48.910;9.478;2024-02-28T08:47:28;98573.97;;;13.04;44.62
36284;BME280;56085;48.910;9.478;2024-02-28T08:49:54;98568.53;;;13.11;44.36
36284;BME280;56085;48.910;9.478;2024-02-28T08:52:20;98572.41;;;13.06;44.67
36284;BME280;56085;48.910;9.478;2024-02-28T08:54:46;98578.78;;;12.84;44.81
36284;BME280;56085;48.910;9.478;2024-02-28T08:57:12;98576.31;;;12.79;45.14
36284;BME280;56085;48.910;9.478;2024-02-28T08:59:37;98584.75;;;13.09;44.59
36284;BME280;56085;48.910;9.478;2024-02-28T09:02:03;98583.34;;;13.19;44.72
36284;BME280;56085;48.910;9.478;2024-02-28T09:04:29;98581.72;;;13.18;44.64
36284;BME280;56085;48.910;9.478;2024-02-28T09:06:54;98588.06;;;13.18;44.88
36284;BME280;56085;48.910;9.478;2024-02-28T09:09:19;98580.69;;;13.26;44.69
36284;BME280;56085;48.910;9.478;2024-02-28T09:11:45;98578.41;;;13.32;44.35
36284;BME280;56085;48.910;9.478;2024-02-28T09:14:10;98587.16;;;13.34;44.48
36284;BME280;56085;48.910;9.478;2024-02-28T09:16:35;98581.19;;;13.32;44.24
36284;BME280;56085;48.910;9.478;2024-02-28T09:19:03;98577.34;;;13.40;44.06
36284;BME280;56085;48.910;9.478;2024-02-28T09:21:28;98587.34;;;13.44;44.41
36284;BME280;56085;48.910;9.478;2024-02-28T09:23:54;98584.72;;;13.55;44.06
36284;BME280;56085;48.910;9.478;2024-02-28T09:26:19;98590.28;;;13.55;44.16
36284;BME280;56085;48.910;9.478;2024-02-28T09:28:44;98597.53;;;13.64;44.02
36284;BME280;56085;48.910;9.478;2024-02-28T09:31:10;98588.94;;;13.72;44.20
36284;BME280;56085;48.910;9.478;2024-02-28T09:33:36;98582.16;;;13.70;44.29
36284;BME280;56085;48.910;9.478;2024-02-28T09:36:02;98590.97;;;13.75;44.17
36284;BME280;56085;48.910;9.478;2024-02-28T09:38:28;98590.81;;;13.65;44.09
36284;BME280;56085;48.910;9.478;2024-02-28T09:40:54;98589.84;;;13.30;44.82
36284;BME280;56085;48.910;9.478;2024-02-28T09:43:35;98585.41;;;13.49;44.67
36284;BME280;56085;48.910;9.478;2024-02-28T09:46:05;98592.22;;;13.51;44.22
36284;BME280;56085;48.910;9.478;2024-02-28T09:48:31;98591.66;;;13.69;43.78
36284;BME280;56085;48.910;9.478;2024-02-28T09:50:57;98593.97;;;13.63;43.91
36284;BME280;56085;48.910;9.478;2024-02-28T09:53:23;98597.22;;;13.69;43.90
36284;BME280;56085;48.910;9.478;2024-02-28T09:55:50;98597.22;;;13.69;43.81
36284;BME280;56085;48.910;9.478;2024-02-28T09:58:15;98603.19;;;13.71;43.53
36284;BME280;56085;48.910;9.478;2024-02-28T10:00:43;98597.19;;;13.95;43.46
36284;BME280;56085;48.910;9.478;2024-02-28T10:03:14;98600.94;;;14.07;43.21
36284;BME280;56085;48.910;9.478;2024-02-28T10:05:42;98601.78;;;14.11;42.88
36284;BME280;56085;48.910;9.478;2024-02-28T10:08:07;98594.69;;;14.17;42.85
36284;BME280;56085;48.910;9.478;2024-02-28T10:10:37;98594.69;;;14.17;42.80
36284;BME280;56085;48.910;9.478;2024-02-28T10:13:03;98600.97;;;14.10;43.18
36284;BME280;56085;48.910;9.478;2024-02-28T10:15:28;98604.59;;;14.14;43.14
36284;BME280;56085;48.910;9.478;2024-02-28T10:17:54;98603.03;;;13.87;42.80
36284;BME280;56085;48.910;9.478;2024-02-28T10:20:19;98605.66;;;13.76;42.88
36284;BME280;56085;48.910;9.478;2024-02-28T10:22:45;98606.31;;;13.66;43.03
36284;BME280;56085;48.910;9.478;2024-02-28T10:25:10;98610.31;;;13.95;42.65
36284;BME280;56085;48.910;9.478;2024-02-28T10:27:35;98614.44;;;14.08;42.19
36284;BME280;56085;48.910;9.478;2024-02-28T10:30:02;98626.59;;;13.96;42.16
36284;BME280;56085;48.910;9.478;2024-02-28T10:32:32;98628.75;;;14.10;41.90
36284;BME280;56085;48.910;9.478;2024-02-28T10:35:00;98629.91;;;14.06;42.33
36284;BME280;56085;48.910;9.478;2024-02-28T10:37:28;98629.41;;;14.27;42.01
36284;BME280;56085;48.910;9.478;2024-02-28T10:39:56;98629.41;;;14.00;42.44
36284;BME280;56085;48.910;9.478;2024-02-28T10:42:22;98637.66;;;13.93;42.76
36284;BME280;56085;48.910;9.478;2024-02-28T10:44:49;98634.81;;;13.86;42.35
36284;BME280;56085;48.910;9.478;2024-02-28T10:47:17;98640.41;;;13.89;42.69
36284;BME280;56085;48.910;9.478;2024-02-28T10:49:43;98649.13;;;13.88;42.44
36284;BME280;56085;48.910;9.478;2024-02-28T10:52:11;98654.97;;;14.09;42.29
36284;BME280;56085;48.910;9.478;2024-02-28T10:54:40;98655.19;;;14.24;42.36
36284;BME280;56085;48.910;9.478;2024-02-28T10:57:12;98655.22;;;14.27;42.53
36284;BME280;56085;48.910;9.478;2024-02-28T10:59:37;98659.13;;;14.23;42.70
36284;BME280;56085;48.910;9.478;2024-02-28T11:02:03;98655.88;;;14.17;42.52
36284;BME280;56085;48.910;9.478;2024-02-28T11:04:29;98648.69;;;14.16;42.86
36284;BME280;56085;48.910;9.478;2024-02-28T11:06:55;98648.00;;;14.23;42.51
36284;BME280;56085;48.910;9.478;2024-02-28T11:09:25;98650.38;;;14.21;42.77
36284;BME280;56085;48.910;9.478;2024-02-28T11:11:51;98651.00;;;14.10;42.43
36284;BME280;56085;48.910;9.478;2024-02-28T11:14:17;98650.44;;;14.28;42.48
36284;BME280;56085;48.910;9.478;2024-02-28T11:16:46;98648.91;;;14.30;41.76
36284;BME280;56085;48.910;9.478;2024-02-28T11:19:29;98651.91;;;14.48;41.74
36284;BME280;56085;48.910;9.478;2024-02-28T11:21:57;98655.97;;;14.24;41.97
36284;BME280;56085;48.910;9.478;2024-02-28T11:24:33;98656.81;;;14.28;41.86
36284;BME280;56085;48.910;9.478;2024-02-28T11:26:59;98665.81;;;14.18;41.84
36284;BME280;56085;48.910;9.478;2024-02-28T11:29:26;98659.91;;;14.23;42.23
36284;BME280;56085;48.910;9.478;2024-02-28T11:31:53;98658.50;;;14.06;42.25
36284;BME280;56085;48.910;9.478;2024-02-28T11:34:19;98665.00;;;14.18;41.81
36284;BME280;56085;48.910;9.478;2024-02-28T11:36:50;98666.19;;;14.47;41.98
36284;BME280;56085;48.910;9.478;2024-02-28T11:39:16;98659.34;;;14.41;41.83
36284;BME280;56085;48.910;9.478;2024-02-28T11:41:43;98666.13;;;14.40;41.94
36284;BME280;56085;48.910;9.478;2024-02-28T11:44:12;98661.28;;;14.37;41.51
36284;BME280;56085;48.910;9.478;2024-02-28T11:46:37;98665.09;;;14.25;42.06
36284;BME280;56085;48.910;9.478;2024-02-28T11:49:02;98667.34;;;14.12;42.39
36284;BME280;56085;48.910;9.478;2024-02-28T11:51:28;98665.28;;;14.09;42.08
36284;BME280;56085;48.910;9.478;2024-02-28T11:53:54;98662.09;;;14.07;42.13
36284;BME280;56085;48.910;9.478;2024-02-28T11:56:19;98665.56;;;14.00;42.34
36284;BME280;56085;48.910;9.478;2024-02-28T11:58:53;98664.56;;;14.12;42.51
36284;BME280;56085;48.910;9.478;2024-02-28T12:01:19;98663.34;;;14.13;42.22
36284;BME280;56085;48.910;9.478;2024-02-28T12:03:45;98665.47;;;14.23;42.26
36284;BME280;56085;48.910;9.478;2024-02-28T12:06:11;98662.00;;;14.30;42.08
36284;BME280;56085;48.910;9.478;2024-02-28T12:08:36;98657.47;;;14.18;42.39
36284;BME280;56085;48.910;9.478;2024-02-28T12:11:08;98652.75;;;14.53;41.93
36284;BME280;56085;48.910;9.478;2024-02-28T12:13:36;98645.63;;;14.25;41.78
36284;BME280;56085;48.910;9.478;2024-02-28T12:16:02;98646.38;;;14.18;42.23
36284;BME280;56085;48.910;9.478;2024-02-28T12:18:28;98646.91;;;14.01;42.55
36284;BME280;56085;48.910;9.478;2024-02-28T12:20:53;98645.69;;;14.28;41.96
36284;BME280;56085;48.910;9.478;2024-02-28T12:23:19;98644.22;;;14.38;42.03
36284;BME280;56085;48.910;9.478;2024-02-28T12:25:44;98644.66;;;14.40;41.86
36284;BME280;56085;48.910;9.478;2024-02-28T12:28:10;98639.59;;;14.49;41.71
36284;BME280;56085;48.910;9.478;2024-02-28T12:30:40;98642.56;;;14.34;41.78
36284;BME280;56085;48.910;9.478;2024-02-28T12:33:07;98642.91;;;14.28;41.84
36284;BME280;56085;48.910;9.478;2024-02-28T12:35:32;98635.34;;;14.59;41.52
36284;BME280;56085;48.910;9.478;2024-02-28T12:37:57;98639.94;;;14.75;41.21
36284;BME280;56085;48.910;9.478;2024-02-28T12:40:23;98637.66;;;14.54;41.29
36284;BME280;56085;48.910;9.478;2024-02-28T12:42:50;98636.78;;;14.46;41.70
36284;BME280;56085;48.910;9.478;2024-02-28T12:45:15;98629.59;;;14.79;41.01
36284;BME280;56085;48.910;9.478;2024-02-28T12:47:40;98623.22;;;14.75;41.05
36284;BME280;56085;48.910;9.478;2024-02-28T12:50:07;98630.34;;;14.72;41.30
36284;BME280;56085;48.910;9.478;2024-02-28T12:52:33;98626.88;;;14.48;41.36
36284;BME280;56085;48.910;9.478;2024-02-28T12:54:59;98634.19;;;14.30;41.84
36284;BME280;56085;48.910;9.478;2024-02-28T12:57:24;98634.78;;;14.46;41.60
36284;BME280;56085;48.910;9.478;2024-02-28T12:59:49;98633.91;;;14.39;41.66
36284;BME280;56085;48.910;9.478;2024-02-28T13:02:15;98636.31;;;14.71;41.36
36284;BME280;56085;48.910;9.478;2024-02-28T13:04:42;98639.97;;;14.48;41.47
36284;BME280;56085;48.910;9.478;2024-02-28T13:07:07;98624.22;;;14.59;41.38
36284;BME280;56085;48.910;9.478;2024-02-28T13:09:33;98628.75;;;14.41;41.31
36284;BME280;56085;48.910;9.478;2024-02-28T13:11:58;98625.06;;;14.29;41.60
36284;BME280;56085;48.910;9.478;2024-02-28T13:14:23;98626.13;;;14.21;42.19
36284;BME280;56085;48.910;9.478;2024-02-28T13:16:49;98621.47;;;14.29;42.02
36284;BME280;56085;48.910;9.478;2024-02-28T13:19:15;98625.38;;;14.24;41.99
36284;BME280;56085;48.910;9.478;2024-02-28T13:21:40;98617.16;;;14.35;41.95
36284;BME280;56085;48.910;9.478;2024-02-28T13:24:06;98630.25;;;14.31;41.60
36284;BME280;56085;48.910;9.478;2024-02-28T13:26:31;98626.66;;;14.30;41.55
36284;BME280;56085;48.910;9.478;2024-02-28T13:28:56;98622.56;;;14.21;41.85
36284;BME280;56085;48.910;9.478;2024-02-28T13:31:22;98618.75;;;14.66;41.30
36284;BME280;56085;48.910;9.478;2024-02-28T13:33:47;98624.16;;;14.56;41.40
36284;BME280;56085;48.910;9.478;2024-02-28T13:36:13;98611.91;;;14.60;41.09
36284;BME280;56085;48.910;9.478;2024-02-28T13:38:38;98611.06;;;14.56;41.08
36284;BME280;56085;48.910;9.478;2024-02-28T13:41:04;98618.25;;;14.57;40.88
36284;BME280;56085;48.910;9.478;2024-02-28T13:43:29;98615.81;;;14.56;41.29
36284;BME280;56085;48.910;9.478;2024-02-28T13:45:55;98620.38;;;14.68;41.08
36284;BME280;56085;48.910;9.478;2024-02-28T13:48:25;98617.53;;;14.64;40.87
36284;BME280;56085;48.910;9.478;2024-02-28T13:50:52;98611.97;;;14.64;40.96
36284;BME280;56085;48.910;9.478;2024-02-28T13:53:17;98609.63;;;14.70;40.89
36284;BME280;56085;48.910;9.478;2024-02-28T13:55:43;98609.34;;;14.82;40.83
36284;BME280;56085;48.910;9.478;2024-02-28T13:58:10;98601.88;;;14.52;41.13
36284;BME280;56085;48.910;9.478;2024-02-28T14:00:36;98602.75;;;14.60;40.63
36284;BME280;56085;48.910;9.478;2024-02-28T14:03:02;98595.41;;;14.75;40.39
36284;BME280;56085;48.910;9.478;2024-02-28T14:05:28;98593.94;;;14.54;40.44
36284;BME280;56085;48.910;9.478;2024-02-28T14:07:54;98598.91;;;14.72;40.47
36284;BME280;56085;48.910;9.478;2024-02-28T14:10:19;98597.75;;;14.73;40.37
36284;BME280;56085;48.910;9.478;2024-02-28T14:12:47;98596.25;;;14.82;40.14
36284;BME280;56085;48.910;9.478;2024-02-28T14:15:13;98590.78;;;14.93;40.15
36284;BME280;56085;48.910;9.478;2024-02-28T14:17:38;98605.84;;;14.89;40.21
36284;BME280;56085;48.910;9.478;2024-02-28T14:20:04;98599.97;;;14.94;40.04
36284;BME280;56085;48.910;9.478;2024-02-28T14:22:31;98611.50;;;14.96;40.08
36284;BME280;56085;48.910;9.478;2024-02-28T14:24:57;98609.72;;;14.77;40.23
36284;BME280;56085;48.910;9.478;2024-02-28T14:27:23;98619.59;;;14.71;40.39
36284;BME280;56085;48.910;9.478;2024-02-28T14:29:50;98616.75;;;14.67;40.60
36284;BME280;56085;48.910;9.478;2024-02-28T14:32:15;98609.63;;;14.66;40.83
36284;BME280;56085;48.910;9.478;2024-02-28T14:34:41;98607.31;;;14.75;40.42
36284;BME280;56085;48.910;9.478;2024-02-28T14:37:06;98607.66;;;14.70;40.41
36284;BME280;56085;48.910;9.478;2024-02-28T14:39:32;98607.50;;;14.93;39.92
36284;BME280;56085;48.910;9.478;2024-02-28T14:41:59;98607.53;;;14.97;39.87
36284;BME280;56085;48.910;9.478;2024-02-28T14:44:24;98607.31;;;14.75;40.26
36284;BME280;56085;48.910;9.478;2024-02-28T14:46:49;98608.19;;;14.83;39.66
36284;BME280;56085;48.910;9.478;2024-02-28T14:49:16;98605.13;;;14.95;39.89
36284;BME280;56085;48.910;9.478;2024-02-28T14:51:43;98603.22;;;15.07;39.95
36284;BME280;56085;48.910;9.478;2024-02-28T14:54:13;98606.84;;;15.11;39.94
36284;BME280;56085;48.910;9.478;2024-02-28T14:56:38;98601.22;;;15.04;39.77
36284;BME280;56085;48.910;9.478;2024-02-28T14:59:03;98601.88;;;14.52;40.43
36284;BME280;56085;48.910;9.478;2024-02-28T15:01:30;98598.38;;;14.59;40.37
36284;BME280;56085;48.910;9.478;2024-02-28T15:03:55;98600.88;;;14.68;40.30
36284;BME280;56085;48.910;9.478;2024-02-28T15:06:20;98598.59;;;14.80;40.26
36284;BME280;56085;48.910;9.478;2024-02-28T15:08:46;98604.72;;;14.93;39.98
36284;BME280;56085;48.910;9.478;2024-02-28T15:11:11;98608.63;;;14.85;39.95
36284;BME280;56085;48.910;9.478;2024-02-28T15:13:36;98602.97;;;14.78;39.98
36284;BME280;56085;48.910;9.478;2024-02-28T15:16:02;98601.81;;;14.82;39.94
36284;BME280;56085;48.910;9.478;2024-02-28T15:18:27;98601.38;;;14.77;40.06
36284;BME280;56085;48.910;9.478;2024-02-28T15:20:52;98596.06;;;14.64;40.28
36284;BME280;56085;48.910;9.478;2024-02-28T15:23:19;98601.22;;;14.62;40.32
36284;BME280;56085;48.910;9.478;2024-02-28T15:25:46;98601.69;;;14.68;40.26
36284;BME280;56085;48.910;9.478;2024-02-28T15:28:12;98596.13;;;14.68;40.25
36284;BME280;56085;48.910;9.478;2024-02-28T15:30:37;98590.81;;;14.59;39.92
36284;BME280;56085;48.910;9.478;2024-02-28T15:33:03;98600.16;;;14.74;39.76
36284;BME280;56085;48.910;9.478;2024-02-28T15:35:28;98597.78;;;14.76;39.86
36284;BME280;56085;48.910;9.478;2024-02-28T15:37:54;98595.75;;;14.73;40.26
36284;BME280;56085;48.910;9.478;2024-02-28T15:40:19;98602.22;;;14.84;39.97
36284;BME280;56085;48.910;9.478;2024-02-28T15:42:47;98606.63;;;14.86;40.22
36284;BME280;56085;48.910;9.478;2024-02-28T15:45:12;98603.75;;;14.75;40.05
36284;BME280;56085;48.910;9.478;2024-02-28T15:47:37;98597.88;;;14.83;39.79
36284;BME280;56085;48.910;9.478;2024-02-28T15:50:07;98593.47;;;14.82;39.96
36284;BME280;56085;48.910;9.478;2024-02-28T15:52:32;98596.38;;;14.59;40.49
36284;BME280;56085;48.910;9.478;2024-02-28T15:54:58;98603.72;;;14.41;40.75
36284;BME280;56085;48.910;9.478;2024-02-28T15:57:23;98597.91;;;14.53;40.35
36284;BME280;56085;48.910;9.478;2024-02-28T15:59:48;98598.00;;;14.60;40.37
36284;BME280;56085;48.910;9.478;2024-02-28T16:02:14;98600.44;;;14.65;40.19
36284;BME280;56085;48.910;9.478;2024-02-28T16:04:39;98602.75;;;14.60;40.34
36284;BME280;56085;48.910;9.478;2024-02-28T16:07:04;98597.91;;;14.53;40.60
36284;BME280;56085;48.910;9.478;2024-02-28T16:09:30;98600.34;;;14.58;40.56
36284;BME280;56085;48.910;9.478;2024-02-28T16:11:55;98600.03;;;14.63;40.22
36284;BME280;56085;48.910;9.478;2024-02-28T16:14:20;98601.22;;;14.62;40.21
36284;BME280;56085;48.910;9.478;2024-02-28T16:16:46;98595.91;;;14.54;40.33
36284;BME280;56085;48.910;9.478;2024-02-28T16:19:11;98602.00;;;14.63;40.42
36284;BME280;56085;48.910;9.478;2024-02-28T16:21:37;98606.56;;;14.78;40.12
36284;BME280;56085;48.910;9.478;2024-02-28T16:24:02;98614.63;;;14.57;40.40
36284;BME280;56085;48.910;9.478;2024-02-28T16:26:27;98609.88;;;14.57;40.50
36284;BME280;56085;48.910;9.478;2024-02-28T16:28:53;98615.38;;;14.50;40.63
36284;BME280;56085;48.910;9.478;2024-02-28T16:31:19;98614.13;;;14.47;40.49
36284;BME280;56085;48.910;9.478;2024-02-28T16:33:44;98620.38;;;14.37;40.69
36284;BME280;56085;48.910;9.478;2024-02-28T16:36:09;98614.59;;;14.53;40.59
36284;BME280;56085;48.910;9.478;2024-02-28T16:38:36;98618.06;;;14.43;40.58
36284;BME280;56085;48.910;9.478;2024-02-28T16:41:01;98615.31;;;14.46;40.43
36284;BME280;56085;48.910;9.478;2024-02-28T16:43:28;98621.75;;;14.20;40.72
36284;BME280;56085;48.910;9.478;2024-02-28T16:45:53;98620.78;;;14.39;40.40
36284;BME280;56085;48.910;9.478;2024-02-28T16:48:20;98620.75;;;14.36;40.71
36284;BME280;56085;48.910;9.478;2024-02-28T16:50:46;98623.44;;;14.28;41.09
36284;BME280;56085;48.910;9.478;2024-02-28T16:53:11;98621.56;;;14.36;41.08
36284;BME280;56085;48.910;9.478;2024-02-28T16:55:36;98616.00;;;14.36;40.76
36284;BME280;56085;48.910;9.478;2024-02-28T16:58:02;98623.19;;;14.41;41.04
36284;BME280;56085;48.910;9.478;2024-02-28T17:00:29;98621.16;;;14.38;41.00
36284;BME280;56085;48.910;9.478;2024-02-28T17:02:55;98627.91;;;14.37;40.96
36284;BME280;56085;48.910;9.478;2024-02-28T17:05:20;98624.38;;;14.40;41.14
36284;BME280;56085;48.910;9.478;2024-02-28T17:07:45;98635.56;;;14.43;40.62
36284;BME280;56085;48.910;9.478;2024-02-28T17:10:10;98628.16;;;14.24;41.22
36284;BME280;56085;48.910;9.478;2024-02-28T17:12:36;98638.53;;;14.27;41.32
36284;BME280;56085;48.910;9.478;2024-02-28T17:15:01;98640.50;;;14.27;40.95
36284;BME280;56085;48.910;9.478;2024-02-28T17:17:26;98645.91;;;14.16;41.10
36284;BME280;56085;48.910;9.478;2024-02-28T17:19:52;98643.88;;;14.09;41.16
36284;BME280;56085;48.910;9.478;2024-02-28T17:22:18;98648.16;;;13.76;42.11
36284;BME280;56085;48.910;9.478;2024-02-28T17:24:44;98647.09;;;13.85;41.71
36284;BME280;56085;48.910;9.478;2024-02-28T17:27:09;98650.06;;;13.99;41.57
36284;BME280;56085;48.910;9.478;2024-02-28T17:29:34;98649.34;;;14.06;41.48
36284;BME280;56085;48.910;9.478;2024-02-28T17:32:03;98655.25;;;14.01;41.82
36284;BME280;56085;48.910;9.478;2024-02-28T17:34:29;98657.66;;;14.02;42.05
36284;BME280;56085;48.910;9.478;2024-02-28T17:36:54;98652.00;;;13.95;41.90
36284;BME280;56085;48.910;9.478;2024-02-28T17:39:19;98654.72;;;13.91;41.98
36284;BME280;56085;48.910;9.478;2024-02-28T17:41:46;98651.81;;;14.11;41.34
36284;BME280;56085;48.910;9.478;2024-02-28T17:44:11;98655.97;;;14.24;41.16
36284;BME280;56085;48.910;9.478;2024-02-28T17:46:38;98658.44;;;14.29;41.40
36284;BME280;56085;48.910;9.478;2024-02-28T17:49:03;98659.22;;;14.30;41.11
36284;BME280;56085;48.910;9.478;2024-02-28T17:51:33;98665.53;;;14.27;41.30
36284;BME280;56085;48.910;9.478;2024-02-28T17:54:04;98671.03;;;14.23;41.44
36284;BME280;56085;48.910;9.478;2024-02-28T17:56:30;98674.16;;;14.18;41.56
36284;BME280;56085;48.910;9.478;2024-02-28T17:58:57;98676.22;;;14.25;41.91
36284;BME280;56085;48.910;9.478;2024-02-28T18:01:23;98669.41;;;14.19;41.56
36284;BME280;56085;48.910;9.478;2024-02-28T18:03:48;98671.38;;;14.18;41.32
36284;BME280;56085;48.910;9.478;2024-02-28T18:06:16;98666.41;;;14.31;41.52
36284;BME280;56085;48.910;9.478;2024-02-28T18:08:43;98671.00;;;14.20;41.71
36284;BME280;56085;48.910;9.478;2024-02-28T18:11:08;98679.09;;;14.32;41.42
36284;BME280;56085;48.910;9.478;2024-02-28T18:13:34;98673.59;;;14.36;41.50
36284;BME280;56085;48.910;9.478;2024-02-28T18:15:59;98676.38;;;14.36;41.32
36284;BME280;56085;48.910;9.478;2024-02-28T18:18:24;98681.94;;;14.36;41.45
36284;BME280;56085;48.910;9.478;2024-02-28T18:20:49;98683.03;;;14.27;41.22
36284;BME280;56085;48.910;9.478;2024-02-28T18:23:15;98676.47;;;14.12;41.50
36284;BME280;56085;48.910;9.478;2024-02-28T18:25:40;98671.00;;;14.20;41.29
36284;BME280;56085;48.910;9.478;2024-02-28T18:28:06;98681.03;;;14.28;41.26
36284;BME280;56085;48.910;9.478;2024-02-28T18:30:32;98682.63;;;14.25;41.37
36284;BME280;56085;48.910;9.478;2024-02-28T18:32:57;98678.69;;;14.30;41.42
36284;BME280;56085;48.910;9.478;2024-02-28T18:35:24;98672.56;;;14.17;41.65
36284;BME280;56085;48.910;9.478;2024-02-28T18:37:50;98678.13;;;14.17;41.54
36284;BME280;56085;48.910;9.478;2024-02-28T18:40:16;98670.16;;;14.16;41.43
36284;BME280;56085;48.910;9.478;2024-02-28T18:42:42;98665.91;;;13.95;41.77
36284;BME280;56085;48.910;9.478;2024-02-28T18:45:09;98672.84;;;14.08;41.53
36284;BME280;56085;48.910;9.478;2024-02-28T18:47:35;98660.44;;;14.02;41.72
36284;BME280;56085;48.910;9.478;2024-02-28T18:50:01;98655.47;;;13.88;42.04
36284;BME280;56085;48.910;9.478;2024-02-28T18:52:26;98663.66;;;13.77;41.84
36284;BME280;56085;48.910;9.478;2024-02-28T18:54:52;98661.19;;;13.72;42.10
36284;BME280;56085;48.910;9.478;2024-02-28T18:57:17;98657.91;;;13.67;41.93
36284;BME280;56085;48.910;9.478;2024-02-28T18:59:43;98656.22;;;13.58;42.47
36284;BME280;56085;48.910;9.478;2024-02-28T19:02:09;98657.56;;;13.68;42.31
36284;BME280;56085;48.910;9.478;2024-02-28T19:04:35;98659.50;;;13.41;42.85
36284;BME280;56085;48.910;9.478;2024-02-28T19:07:01;98654.16;;;13.32;42.72
36284;BME280;56085;48.910;9.478;2024-02-28T19:09:26;98651.28;;;13.25;42.71
36284;BME280;56085;48.910;9.478;2024-02-28T19:11:51;98662.69;;;12.97;43.34
36284;BME280;56085;48.910;9.478;2024-02-28T19:14:17;98661.47;;;12.98;43.34
36284;BME280;56085;48.910;9.478;2024-02-28T19:16:43;98659.16;;;13.00;43.29
36284;BME280;56085;48.910;9.478;2024-02-28T19:19:08;98654.44;;;12.81;43.48
36284;BME280;56085;48.910;9.478;2024-02-28T19:21:34;98653.03;;;12.90;43.29
36284;BME280;56085;48.910;9.478;2024-02-28T19:23:59;98655.38;;;12.88;43.53
36284;BME280;56085;48.910;9.478;2024-02-28T19:26:24;98651.97;;;12.75;43.49
36284;BME280;56085;48.910;9.478;2024-02-28T19:28:51;98657.69;;;12.63;43.84
36284;BME280;56085;48.910;9.478;2024-02-28T19:31:16;98647.19;;;12.53;44.15
36284;BME280;56085;48.910;9.478;2024-02-28T19:33:42;98654.09;;;12.43;44.40
36284;BME280;56085;48.910;9.478;2024-02-28T19:36:09;98657.38;;;12.29;44.34
36284;BME280;56085;48.910;9.478;2024-02-28T19:38:34;98653.59;;;12.18;44.46
36284;BME280;56085;48.910;9.478;2024-02-28T19:41:00;98649.34;;;12.24;44.25
36284;BME280;56085;48.910;9.478;2024-02-28T19:43:26;98644.59;;;12.05;44.93
36284;BME280;56085;48.910;9.478;2024-02-28T19:45:51;98646.13;;;12.02;44.64
36284;BME280;56085;48.910;9.478;2024-02-28T19:48:16;98648.53;;;12.04;44.56
36284;BME280;56085;48.910;9.478;2024-02-28T19:50:42;98641.47;;;11.91;44.66
36284;BME280;56085;48.910;9.478;2024-02-28T19:53:07;98647.00;;;11.91;44.89
36284;BME280;56085;48.910;9.478;2024-02-28T19:55:32;98642.25;;;11.56;45.56
36284;BME280;56085;48.910;9.478;2024-02-28T19:57:58;98640.94;;;11.49;45.85
36284;BME280;56085;48.910;9.478;2024-02-28T20:00:24;98638.16;;;11.49;45.70
36284;BME280;56085;48.910;9.478;2024-02-28T20:02:49;98640.09;;;11.49;45.84
36284;BME280;56085;48.910;9.478;2024-02-28T20:05:14;98632.25;;;11.51;45.45
36284;BME280;56085;48.910;9.478;2024-02-28T20:07:40;98641.81;;;11.53;45.18
36284;BME280;56085;48.910;9.478;2024-02-28T20:10:08;98641.81;;;11.53;45.59
36284;BME280;56085;48.910;9.478;2024-02-28T20:12:34;98637.88;;;11.39;45.63
36284;BME280;56085;48.910;9.478;2024-02-28T20:14:59;98640.22;;;11.21;45.73
36284;BME280;56085;48.910;9.478;2024-02-28T20:17:25;98634.13;;;10.99;46.43
36284;BME280;56085;48.910;9.478;2024-02-28T20:19:50;98633.88;;;11.04;46.44
36284;BME280;56085;48.910;9.478;2024-02-28T20:22:16;98639.84;;;11.06;46.37
36284;BME280;56085;48.910;9.478;2024-02-28T20:24:41;98633.53;;;11.06;46.29
36284;BME280;56085;48.910;9.478;2024-02-28T20:27:07;98632.25;;;11.03;46.23
36284;BME280;56085;48.910;9.478;2024-02-28T20:29:33;98627.97;;;10.90;46.43
36284;BME280;56085;48.910;9.478;2024-02-28T20:31:59;98633.84;;;10.72;46.70
36284;BME280;56085;48.910;9.478;2024-02-28T20:34:24;98627.56;;;10.59;47.01
36284;BME280;56085;48.910;9.478;2024-02-28T20:36:49;98634.03;;;10.51;47.00
36284;BME280;56085;48.910;9.478;2024-02-28T20:39:15;98629.53;;;10.59;46.81
36284;BME280;56085;48.910;9.478;2024-02-28T20:41:40;98623.69;;;10.48;46.84
36284;BME280;56085;48.910;9.478;2024-02-28T20:44:06;98622.63;;;10.53;46.97
36284;BME280;56085;48.910;9.478;2024-02-28T20:46:37;98618.56;;;10.34;46.95
36284;BME280;56085;48.910;9.478;2024-02-28T20:49:03;98629.63;;;10.22;47.51
36284;BME280;56085;48.910;9.478;2024-02-28T20:51:28;98627.63;;;9.94;47.71
36284;BME280;56085;48.910;9.478;2024-02-28T20:53:56;98622.53;;;10.08;47.89
36284;BME280;56085;48.910;9.478;2024-02-28T20:56:23;98614.06;;;10.29;47.13
36284;BME280;56085;48.910;9.478;2024-02-28T20:58:49;98612.06;;;10.42;46.87
36284;BME280;56085;48.910;9.478;2024-02-28T21:01:15;98600.69;;;10.31;46.78
36284;BME280;56085;48.910;9.478;2024-02-28T21:03:40;98609.38;;;10.18;46.83
36284;BME280;56085;48.910;9.478;2024-02-28T21:06:05;98610.56;;;10.17;47.00
36284;BME280;56085;48.910;9.478;2024-02-28T21:08:31;98599.66;;;10.08;47.08
36284;BME280;56085;48.910;9.478;2024-02-28T21:10:56;98609.25;;;9.86;47.08
36284;BME280;56085;48.910;9.478;2024-02-28T21:13:22;98604.84;;;9.97;47.32